Date,TemperatureHighF,TemperatureAvgF,TemperatureLowF,DewpointHighF,DewpointAvgF,DewpointLowF,HumidityHigh,HumidityAvg,HumidityLow,PressureMaxIn,PressureMinIn,WindSpeedMaxMPH,WindSpeedAvgMPH,GustSpeedMaxMPH,PrecipitationSumIn
2013-1-1,38.0,34.8,24.0,30.0,24.5,14.0,78,66,56,29.58,29.41,1,0,8,0.00
2013-1-2,31.0,25.5,21.0,19.0,15.3,12.0,81,65,54,29.74,29.57,0,0,0,0.00
2013-1-3,34.0,26.7,19.0,21.0,18.1,16.0,90,71,52,29.75,29.62,0,0,0,0.00
2013-1-4,38.0,33.4,30.0,26.0,23.1,21.0,75,66,56,29.64,29.51,1,0,8,0.00
2013-1-5,43.0,34.3,27.0,26.0,23.3,20.0,88,65,49,29.83,29.57,0,0,2,0.00
2013-1-6,47.0,36.2,29.0,31.0,28.1,25.0,89,73,51,29.78,29.53,0,0,0,0.00
2013-1-7,45.0,34.1,26.0,30.0,26.1,23.0,98,75,44,29.96,29.61,0,0,0,0.00
2013-1-8,49.0,32.5,21.0,32.0,26.5,21.0,99,81,48,29.98,29.89,0,0,0,0.00
2013-1-9,46.0,35.0,24.0,38.0,30.4,23.0,99,84,63,29.95,29.71,1,0,6,0.00
2013-1-10,49.0,40.9,32.0,33.0,27.5,26.0,85,60,43,30.10,29.78,1,0,6,0.00
2013-1-11,40.0,35.6,30.0,38.0,32.3,27.0,100,88,69,30.10,29.67,0,0,0,0.35
2013-1-12,47.0,42.5,38.0,46.0,42.1,38.0,100,98,94,29.73,29.65,0,0,0,0.32
2013-1-13,46.0,43.9,41.0,46.0,43.9,41.0,100,100,100,29.72,29.58,0,0,0,0.03
2013-1-14,55.0,47.0,38.0,52.0,41.3,31.0,100,82,54,29.87,29.48,0,0,0,0.09
2013-1-15,38.0,35.6,34.0,35.0,29.9,27.0,97,80,69,29.92,29.79,0,0,0,0.18
2013-1-16,36.0,32.7,30.0,35.0,32.2,30.0,100,98,85,29.80,29.41,0,0,0,0.55
2013-1-17,43.0,37.7,34.0,34.0,28.6,24.0,91,70,59,29.66,29.48,1,0,7,0.01
2013-1-18,34.0,26.6,22.0,25.0,14.9,9.0,78,62,43,30.02,29.59,0,0,1,0.00
2013-1-19,48.0,36.6,22.0,30.0,24.4,15.0,84,62,45,29.94,29.48,3,0,9,0.00
2013-1-20,52.0,39.3,28.0,31.0,24.4,14.0,97,58,26,29.60,29.26,6,0,20,0.00
2013-1-21,29.0,26.0,21.0,20.0,15.9,11.0,82,66,52,29.65,29.40,0,0,0,0.00
2013-1-22,24.0,18.0,11.0,17.0,5.1,-3.0,85,57,39,29.76,29.40,0,0,3,0.00
2013-1-23,20.0,12.2,8.0,5.0,0.8,-2.0,81,60,44,29.80,29.71,0,0,0,0.00
2013-1-24,23.0,14.2,7.0,6.0,3.6,1.0,91,64,40,29.96,29.68,1,0,11,0.00
2013-1-25,25.0,16.4,11.0,17.0,7.9,1.0,94,70,50,29.96,29.62,0,0,7,0.00
2013-1-26,28.0,18.1,10.0,13.0,10.2,8.0,95,73,48,29.93,29.61,0,0,0,0.01
2013-1-27,36.0,23.9,16.0,16.0,13.0,9.0,81,65,38,30.07,29.93,0,0,0,0.01
2013-1-28,34.0,27.4,21.0,34.0,24.1,16.0,100,88,74,30.05,29.57,0,0,0,0.40
2013-1-29,54.0,40.6,33.0,43.0,38.0,33.0,100,92,65,29.73,29.57,0,0,0,0.30
2013-1-30,53.0,42.6,37.0,53.0,42.6,37.0,100,100,100,29.66,28.93,0,0,0,0.40
2013-1-31,49.0,37.9,28.0,49.0,22.5,13.0,100,55,41,29.35,28.88,12,0,23,1.38
2013-2-1,30.0,25.9,21.0,20.0,14.7,10.0,88,63,44,29.79,29.35,5,0,21,0.04
2013-2-2,28.0,21.9,16.0,21.0,13.1,8.0,94,70,44,29.85,29.62,2,0,8,0.00
2013-2-3,31.0,23.4,19.0,21.0,19.6,17.0,98,86,64,29.62,29.37,0,0,0,0.05
2013-2-4,31.0,25.1,20.0,22.0,13.5,11.0,98,62,46,29.54,29.38,3,0,9,0.02
2013-2-5,29.0,27.0,24.0,28.0,23.3,16.0,95,86,69,29.55,29.47,0,0,0,0.01
2013-2-6,39.0,30.8,23.0,28.0,21.9,9.0,100,72,46,29.92,29.49,0,0,0,0.01
2013-2-7,32.0,25.4,19.0,19.0,13.5,11.0,74,61,48,30.07,29.91,0,0,0,0.01
2013-2-8,33.0,30.3,27.0,32.0,28.4,20.0,100,93,70,29.91,29.26,0,0,0,0.60
2013-2-9,33.0,26.9,19.0,29.0,18.3,9.0,100,72,41,29.90,29.34,2,0,12,0.31
2013-2-10,40.0,22.0,13.0,22.0,14.4,9.0,90,73,40,30.01,29.88,0,0,0,0.00
2013-2-11,41.0,33.8,26.0,41.0,32.5,22.0,100,95,82,29.88,29.25,0,0,0,0.27
2013-2-12,44.0,38.8,29.0,36.0,28.2,26.0,100,67,52,29.55,29.29,2,0,8,0.01
2013-2-13,46.0,33.8,24.0,33.0,27.0,23.0,98,78,49,29.53,29.27,0,0,0,0.01
2013-2-14,47.0,35.8,27.0,33.0,29.4,26.0,100,80,46,29.57,29.30,0,0,0,0.04
2013-2-15,55.0,39.6,27.0,35.0,30.1,26.0,99,73,38,29.58,29.49,9,0,13,0.02
2013-2-16,37.0,33.9,29.0,35.0,27.0,15.0,98,77,57,29.55,29.34,0,0,0,0.07
2013-2-17,30.0,24.6,16.0,16.0,8.7,3.0,60,50,39,29.55,29.26,7,0,23,0.01
2013-2-18,32.0,20.8,15.0,20.0,8.2,4.0,73,58,39,29.80,29.55,1,0,9,0.00
2013-2-19,42.0,32.7,21.0,41.0,27.8,17.0,100,83,57,29.75,29.26,1,0,10,0.36
2013-2-20,36.0,29.0,24.0,25.0,16.5,12.0,67,59,51,29.54,29.28,1,0,7,0.07
2013-2-21,33.0,26.2,22.0,17.0,14.5,13.0,73,61,50,29.87,29.54,6,0,22,0.00
2013-2-22,38.0,30.8,22.0,30.0,22.4,16.0,84,72,55,29.97,29.83,0,0,0,0.00
2013-2-23,40.0,35.5,32.0,40.0,35.0,28.0,100,98,79,29.84,29.40,0,0,0,0.28
2013-2-24,48.0,37.5,32.0,38.0,31.6,23.0,100,81,57,29.55,29.34,0,0,0,0.04
2013-2-25,43.0,36.8,30.0,30.0,27.5,23.0,84,70,56,29.81,29.55,0,0,0,0.00
2013-2-26,43.0,35.7,27.0,34.0,31.1,26.0,98,84,67,29.86,29.49,1,0,5,0.13
2013-2-27,46.0,40.8,34.0,45.0,39.4,34.0,100,95,80,29.51,29.10,1,0,6,1.23
2013-2-28,48.0,40.7,36.0,38.0,34.0,31.0,100,79,54,29.20,29.14,0,0,0,0.01
2013-3-1,43.0,37.6,32.0,32.0,29.8,26.0,94,74,57,29.37,29.19,0,0,3,0.00
2013-3-2,38.0,33.8,29.0,27.0,25.2,23.0,90,71,61,29.36,29.29,1,0,5,0.00
2013-3-3,38.0,30.7,27.0,23.0,20.3,17.0,79,65,51,29.35,29.26,0,0,1,0.00
2013-3-4,39.0,31.9,26.0,22.0,20.4,16.0,76,63,49,29.49,29.34,4,0,20,0.00
2013-3-5,49.0,37.6,30.0,29.0,25.2,21.0,74,62,44,29.59,29.49,0,0,12,0.00
2013-3-6,40.0,38.1,35.0,38.0,30.9,27.0,94,75,67,29.56,29.46,0,0,0,0.04
2013-3-7,39.0,35.7,33.0,35.0,30.1,26.0,98,81,65,29.66,29.53,0,0,0,0.10
2013-3-8,42.0,34.5,30.0,36.0,32.1,28.0,100,91,69,29.79,29.59,0,0,0,0.31
2013-3-9,57.0,41.4,29.0,29.0,25.6,17.0,88,58,21,29.89,29.77,0,0,0,0.04
2013-3-10,54.0,39.3,28.0,35.0,30.9,25.0,92,74,47,29.95,29.85,0,0,0,0.00
2013-3-11,55.0,44.7,38.0,47.0,41.0,35.0,100,88,56,29.89,29.66,0,0,0,0.00
2013-3-12,55.0,49.6,42.0,55.0,47.9,37.0,100,94,79,29.67,29.25,0,0,0,1.67
2013-3-13,50.0,41.2,33.0,37.0,30.8,24.0,97,69,39,29.47,29.37,0,0,0,0.00
2013-3-14,40.0,33.0,27.0,28.0,15.5,9.0,76,50,29,29.54,29.42,18,0,29,1.67
2013-3-15,44.0,35.0,27.0,31.0,20.3,14.0,63,55,46,29.54,29.29,1,0,7,0.00
2013-3-16,38.0,32.7,32.0,31.0,29.8,24.0,95,90,56,29.49,29.36,0,0,0,0.06
2013-3-17,37.0,31.6,26.0,30.0,20.5,16.0,90,65,46,29.87,29.49,0,0,0,0.06
2013-3-18,36.0,28.8,23.0,30.0,20.4,13.0,100,72,51,29.98,29.60,0,0,0,0.05
2013-3-19,45.0,36.4,31.0,36.0,33.6,26.0,100,90,67,29.61,29.28,0,0,0,0.80
2013-3-20,43.0,35.9,30.0,27.0,21.8,20.0,73,57,41,29.45,29.36,0,0,2,0.13
2013-3-21,38.0,32.4,29.0,29.0,19.9,14.0,93,61,40,29.41,29.22,0,0,3,0.79
2013-3-22,41.0,33.0,26.0,25.0,19.9,15.0,73,59,47,29.45,29.30,3,0,13,0.00
2013-3-23,46.0,37.8,32.0,25.0,22.3,20.0,69,54,40,29.51,29.40,0,0,0,0.00
2013-3-24,47.0,38.4,30.0,26.0,23.2,20.0,68,55,41,29.52,29.29,0,0,0,0.00
2013-3-25,42.0,38.9,36.0,35.0,28.7,25.0,89,67,55,29.28,29.19,0,0,0,0.00
2013-3-26,51.0,41.3,34.0,34.0,29.4,26.0,89,65,39,0.00,40.00,0,0,0,0.00
2013-3-27,52.0,41.3,33.0,37.0,28.0,23.0,89,61,34,0.00,40.00,0,0,0,0.03
2013-3-28,49.0,42.2,35.0,33.0,30.9,30.0,84,65,48,0.00,40.00,0,0,0,0.00
2013-3-29,54.0,45.0,37.0,31.0,29.7,27.0,77,56,35,0.00,40.00,0,0,0,0.00
2013-3-30,59.0,44.8,31.0,32.0,25.8,-99.9,93,55,21,0.00,40.00,0,0,0,0.00
2013-3-31,56.0,43.3,31.0,44.0,32.6,-99.9,98,70,38,0.00,40.00,0,0,0,0.27
2013-4-1,61.0,46.3,36.0,47.0,36.5,16.0,100,72,40,0.00,40.00,0,0,0,0.02
2013-4-2,44.0,36.2,30.0,19.0,16.3,13.0,61,45,31,0.00,40.00,0,0,0,0.00
2013-4-3,45.0,36.7,31.0,19.0,15.6,13.0,56,43,29,0.00,40.00,0,0,0,0.00
2013-4-4,56.0,42.5,30.0,25.0,21.1,17.0,62,44,27,0.00,40.00,0,0,0,0.00
2013-4-5,62.0,48.2,37.0,30.0,24.5,20.0,68,42,22,0.00,40.00,0,0,0,0.00
2013-4-6,55.0,42.4,33.0,26.0,17.4,9.0,61,39,17,0.00,40.00,0,0,0,0.00
2013-4-7,63.0,49.1,35.0,43.0,33.1,26.0,78,56,30,0.00,40.00,0,0,0,0.00
2013-4-8,77.0,58.0,43.0,45.0,41.5,33.0,92,59,21,0.00,40.00,0,0,0,0.00
2013-4-9,81.0,66.0,50.0,50.0,41.7,30.0,90,48,16,0.00,40.00,0,0,0,0.00
2013-4-10,78.0,67.7,57.0,57.0,52.7,41.0,94,62,42,0.00,40.00,0,0,0,0.42
2013-4-11,63.0,55.1,45.0,58.0,48.5,39.0,99,81,51,0.00,40.00,0,0,0,0.01
2013-4-12,46.0,42.6,40.0,44.0,40.2,36.0,100,92,73,0.00,40.00,0,0,0,0.57
2013-4-13,58.0,47.6,38.0,42.0,37.2,33.0,100,72,42,0.00,40.00,0,0,0,0.00
2013-4-14,57.0,50.0,44.0,39.0,32.5,28.0,77,53,35,0.00,40.00,0,0,0,0.00
2013-4-15,61.0,49.4,40.0,37.0,31.8,28.0,73,52,35,0.00,40.00,0,0,0,0.00
2013-4-16,65.0,56.6,47.0,54.0,47.1,37.0,83,71,59,0.00,40.00,0,0,0,0.00
2013-4-17,72.0,62.2,53.0,57.0,41.3,30.0,90,51,23,0.00,40.00,0,0,0,0.01
2013-4-18,60.0,52.0,44.0,53.0,43.4,33.0,96,74,38,0.00,40.00,0,0,0,0.01
2013-4-19,77.0,64.5,54.0,63.0,58.6,53.0,100,83,56,0.00,40.00,0,0,0,0.46
2013-4-20,59.0,53.1,44.0,55.0,31.2,26.0,87,44,31,0.00,40.00,0,0,0,0.13
2013-4-21,55.0,49.4,42.0,28.0,24.7,20.0,57,39,27,0.00,40.00,0,0,0,0.00
2013-4-22,55.0,45.9,34.0,36.0,31.1,25.0,84,58,32,30.06,30.04,0,0,0,0.00
2013-4-23,51.0,44.1,38.0,41.0,36.7,31.0,87,75,67,30.26,29.80,0,0,0,0.00
2013-4-24,74.0,55.7,39.0,52.0,44.7,37.0,95,69,41,30.14,29.82,1,0,11,0.00
2013-4-25,65.0,55.2,44.0,53.0,30.9,19.0,77,43,18,30.27,29.87,1,0,7,0.00
2013-4-26,66.0,54.8,41.0,36.0,30.3,20.0,75,43,18,30.43,30.27,0,0,0,0.00
2013-4-27,71.0,56.2,39.0,37.0,32.0,25.0,77,44,21,30.45,30.29,0,0,0,0.00
2013-4-28,72.0,57.0,42.0,42.0,36.2,-99.9,83,51,29,30.33,30.21,0,0,0,0.00
2013-4-29,56.0,53.0,51.0,51.0,47.9,38.0,94,84,53,30.25,30.21,0,0,0,0.14
2013-4-30,69.0,57.9,48.0,50.0,40.5,27.0,94,58,24,30.35,30.22,0,0,0,0.01
2013-5-1,70.0,55.5,40.0,45.0,36.4,27.0,83,53,23,30.50,30.35,0,0,0,0.14
2013-5-2,76.0,59.6,42.0,45.0,41.2,36.0,96,57,24,30.50,30.33,0,0,3,0.00
2013-5-3,68.0,58.0,49.0,45.0,38.9,32.0,80,51,27,30.47,30.36,0,0,0,0.01
2013-5-4,73.0,56.1,42.0,47.0,42.6,39.0,96,65,31,30.40,30.23,1,0,5,0.00
2013-5-5,66.0,52.2,40.0,44.0,40.8,36.0,98,69,34,30.32,30.22,0,0,0,0.00
2013-5-6,72.0,55.6,41.0,53.0,46.9,40.0,96,75,47,30.29,30.16,1,0,8,0.00
2013-5-7,76.0,61.6,46.0,57.0,51.3,45.0,97,72,47,30.19,30.10,2,0,6,0.00
2013-5-8,67.0,60.8,55.0,62.0,58.0,54.0,98,91,79,30.13,29.99,0,0,0,1.04
2013-5-9,68.0,59.1,52.0,59.0,54.4,51.0,99,86,58,30.03,29.91,0,0,0,0.24
2013-5-10,81.0,65.0,51.0,58.0,51.2,-99.9,100,69,36,30.03,29.92,0,0,3,0.80
2013-5-11,72.0,65.5,62.0,64.0,61.3,58.0,95,86,69,29.93,29.73,1,0,7,1.09
2013-5-12,67.0,60.0,49.0,60.0,39.2,-99.9,94,50,25,29.95,29.70,1,0,15,0.01
2013-5-13,55.0,47.6,39.0,36.0,31.2,27.0,88,55,35,30.13,29.95,0,0,0,0.85
2013-5-14,61.0,49.7,39.0,36.0,30.7,22.0,83,52,25,30.15,30.04,0,0,2,0.00
2013-5-15,73.0,56.3,41.0,55.0,44.7,34.0,85,67,51,30.09,29.69,0,0,3,0.00
2013-5-16,83.0,63.5,54.0,56.0,29.0,-99.9,89,55,23,29.87,29.74,1,0,6,0.00
2013-5-17,74.0,62.3,53.0,46.0,37.6,-99.9,68,48,26,30.24,29.87,2,0,10,0.00
2013-5-18,66.0,57.3,48.0,54.0,49.1,45.0,91,75,48,30.33,30.23,0,0,0,0.00
2013-5-19,59.0,57.0,55.0,58.0,55.6,53.0,98,95,87,30.34,30.21,0,0,0,0.66
2013-5-20,81.0,67.8,57.0,64.0,60.8,57.0,100,81,53,30.21,29.99,0,0,0,0.07
2013-5-21,89.0,75.3,61.0,68.0,64.3,60.0,99,71,45,30.01,29.86,0,0,0,0.66
2013-5-22,83.0,71.9,62.0,69.0,65.1,60.0,94,80,59,29.96,29.85,0,0,0,0.00
2013-5-23,78.0,69.9,65.0,70.0,66.6,62.0,95,89,69,29.91,29.78,0,0,4,2.52
2013-5-24,67.0,54.4,46.0,66.0,51.8,41.0,97,91,77,29.98,29.71,1,0,5,0.94
2013-5-25,54.0,48.5,44.0,46.0,41.8,38.0,94,79,61,30.04,29.93,1,0,7,2.03
2013-5-26,68.0,55.3,45.0,40.0,37.8,34.0,78,55,32,30.23,29.98,1,0,4,0.54
2013-5-27,76.0,61.2,45.0,44.0,37.9,31.0,73,46,20,30.27,30.14,0,0,3,0.11
2013-5-28,66.0,56.9,50.0,56.0,50.7,43.0,98,81,47,30.25,30.16,0,0,0,0.48
2013-5-29,84.0,69.0,57.0,67.0,61.4,56.0,100,80,51,30.16,30.02,0,0,0,0.03
2013-5-30,91.0,79.0,65.0,67.0,61.9,57.0,93,60,32,30.15,30.08,0,0,0,0.48
2013-5-31,93.0,79.1,65.0,69.0,62.9,56.0,92,61,29,30.16,30.02,0,0,0,0.00
2013-6-1,90.0,77.7,63.0,66.0,63.8,61.0,94,65,41,30.05,29.92,0,0,0,0.00
2013-6-2,88.0,76.7,68.0,70.0,64.8,-99.9,93,72,46,29.94,29.80,0,0,0,0.24
2013-6-3,81.0,72.2,65.0,69.0,62.4,46.0,92,73,49,29.92,29.83,0,0,0,0.40
2013-6-4,75.0,64.4,54.0,46.0,43.4,39.0,69,48,27,30.14,29.92,1,0,3,0.07
2013-6-5,76.0,63.6,49.0,49.0,44.9,39.0,79,53,34,30.24,30.14,0,0,3,0.17
2013-6-6,70.0,60.8,52.0,61.0,53.5,47.0,94,79,45,30.17,30.05,0,0,3,0.25
2013-6-7,62.0,60.2,59.0,61.0,59.1,58.0,98,97,94,30.05,29.70,0,0,0,2.64
2013-6-8,76.0,66.5,56.0,62.0,58.9,55.0,98,78,56,30.08,29.65,0,0,0,1.17
2013-6-9,81.0,69.6,58.0,61.0,57.4,54.0,95,69,40,30.20,30.08,0,0,0,2.41
2013-6-10,69.0,64.1,62.0,65.0,61.0,58.0,97,90,82,30.19,29.87,0,0,0,1.44
2013-6-11,79.0,69.7,62.0,67.0,62.0,58.0,99,78,55,29.87,29.66,1,0,11,0.70
2013-6-12,76.0,68.5,60.0,59.0,53.3,51.0,84,60,43,29.88,29.74,1,0,8,1.18
2013-6-13,62.0,59.6,56.0,61.0,57.5,54.0,97,93,84,29.88,29.52,0,0,0,1.42
2013-6-14,74.0,60.6,52.0,57.0,53.5,50.0,97,79,52,29.87,29.59,0,0,0,1.21
2013-6-16,81.0,75.9,69.0,63.0,60.8,58.0,81,60,46,29.88,29.80,1,0,6,0.00
2013-6-17,86.0,73.9,61.0,65.0,60.7,57.0,95,67,39,29.94,29.86,0,0,0,0.00
2013-6-18,84.0,68.9,61.0,67.0,61.2,59.0,95,79,44,29.94,29.85,0,0,0,0.97
2013-6-19,77.0,66.1,56.0,59.0,52.3,46.0,95,65,35,30.19,29.93,0,0,0,0.06
2013-6-20,81.0,65.2,53.0,59.0,53.5,51.0,94,70,37,30.29,30.19,0,0,3,0.97
2013-6-22,85.0,80.0,73.0,62.0,60.2,57.0,64,51,41,30.28,30.15,0,0,0,0.00
2013-6-23,89.0,77.3,63.0,67.0,63.8,60.0,93,66,42,30.21,30.09,0,0,0,0.00
2013-6-24,93.0,79.7,71.0,69.0,66.3,61.0,91,66,36,30.10,29.98,0,0,3,0.00
2013-6-25,90.0,79.5,67.0,68.0,64.8,62.0,91,63,41,30.03,29.83,0,0,3,0.02
2013-6-26,85.0,77.8,72.0,69.0,65.1,62.0,81,66,51,29.88,29.82,0,0,0,0.02
2013-6-27,87.0,75.9,68.0,71.0,66.7,65.0,93,75,52,29.87,29.55,1,0,8,1.40
2013-6-28,86.0,77.9,72.0,71.0,66.6,62.0,91,70,46,29.58,29.50,0,0,2,1.47
2013-6-29,86.0,76.1,68.0,66.0,63.3,59.0,89,67,41,29.74,29.52,0,0,0,1.29
2013-6-30,86.0,74.6,65.0,73.0,67.5,62.0,92,79,59,29.94,29.74,0,0,0,0.15
2013-7-1,77.0,74.1,71.0,73.0,70.8,69.0,94,89,80,30.07,29.93,0,0,0,0.85
2013-7-2,83.0,76.9,73.0,74.0,71.0,69.0,93,82,66,30.20,30.07,0,0,0,0.07
2013-7-3,86.0,77.8,72.0,72.0,69.3,68.0,89,76,58,30.27,30.19,0,0,0,0.01
2013-7-4,90.0,81.0,71.0,72.0,69.4,68.0,94,70,48,30.28,30.18,0,0,5,0.00
2013-7-5,91.0,81.2,71.0,71.0,68.3,64.0,93,67,41,30.25,30.12,0,0,5,0.00
2013-7-6,92.0,82.5,73.0,71.0,69.0,66.0,89,66,46,30.17,30.06,1,0,5,0.00
2013-7-7,93.0,83.4,73.0,73.0,69.9,66.0,86,66,45,30.10,29.97,0,0,0,0.09
2013-7-8,88.0,76.6,70.0,67.0,63.6,-99.9,85,68,44,30.08,30.01,0,0,0,0.09
2013-7-9,88.0,77.5,69.0,68.0,65.8,63.0,89,69,46,30.11,30.02,0,0,0,0.00
2013-7-10,86.0,77.9,72.0,72.0,65.5,-99.9,88,69,54,30.06,29.85,3,0,14,0.02
2013-7-11,84.0,77.3,70.0,73.0,67.3,62.0,92,73,48,29.97,29.84,0,0,0,0.22
2013-7-12,77.0,72.1,68.0,69.0,63.5,59.0,93,75,62,30.14,29.97,0,0,0,0.12
2013-7-13,80.0,71.8,66.0,73.0,68.7,64.0,96,90,74,30.32,30.14,0,0,0,0.20
2013-7-14,91.0,80.7,73.0,73.0,70.2,66.0,94,73,47,30.38,30.27,0,0,0,0.01
2013-7-15,93.0,82.5,75.0,72.0,69.1,66.0,83,66,42,30.29,30.18,0,0,0,0.00
2013-7-16,92.0,82.1,72.0,71.0,66.6,63.0,83,62,38,30.25,30.17,0,0,0,0.00
2013-7-17,94.0,81.2,73.0,71.0,68.1,63.0,85,67,37,30.24,30.10,0,0,0,0.00
2013-7-18,95.0,84.0,76.0,73.0,69.2,65.0,80,63,38,30.11,29.99,0,0,0,0.00
2013-7-19,95.0,84.7,75.0,73.0,70.5,69.0,85,65,43,30.01,29.84,0,0,3,0.00
2013-7-20,92.0,81.0,75.0,71.0,66.2,-99.9,79,63,43,29.88,29.78,0,0,3,0.01
2013-7-21,87.0,78.7,72.0,69.0,64.0,59.0,85,63,42,30.00,29.88,0,0,0,0.01
2013-7-22,84.0,74.6,68.0,73.0,67.7,64.0,93,80,60,30.00,29.85,0,0,0,0.89
2013-7-23,87.0,77.5,72.0,73.0,70.0,67.0,95,80,52,29.85,29.61,0,0,0,2.20
2013-7-24,80.0,73.6,66.0,68.0,61.7,52.0,90,68,46,29.99,29.67,0,0,0,0.19
2013-7-25,68.0,64.7,61.0,58.0,53.9,49.0,79,68,62,30.09,29.99,0,0,0,0.00
2013-7-26,83.0,71.3,65.0,61.0,59.0,56.0,83,67,42,30.08,30.03,0,0,0,0.02
2013-7-27,85.0,78.3,66.0,62.0,59.3,55.0,83,53,36,30.08,29.98,0,0,0,0.01
2013-7-28,76.0,69.7,65.0,69.0,65.6,61.0,95,87,70,30.02,29.96,0,0,0,0.64
2013-7-29,83.0,71.4,64.0,68.0,62.5,52.0,97,77,38,30.14,29.99,0,0,0,0.01
2013-7-30,80.0,69.2,59.0,60.0,56.3,54.0,87,65,43,30.21,30.14,0,0,0,0.00
2013-7-31,81.0,70.1,59.0,63.0,58.8,56.0,91,70,45,30.20,30.07,0,0,0,0.00
2013-8-1,70.0,66.3,64.0,67.0,64.0,61.0,96,92,83,30.08,29.88,0,0,0,0.52
2013-8-2,83.0,72.5,62.0,67.0,62.6,57.0,97,74,41,29.94,29.83,0,0,0,0.07
2013-8-3,79.0,70.7,64.0,66.0,63.5,60.0,92,79,55,29.95,29.87,0,0,3,0.07
2013-8-4,79.0,69.3,61.0,62.0,56.5,51.0,91,66,42,30.01,29.90,0,0,4,0.01
2013-8-5,78.0,66.2,55.0,56.0,51.3,46.0,88,62,36,30.09,30.01,0,0,0,0.00
2013-8-6,82.0,68.4,55.0,60.0,54.6,51.0,93,65,35,30.15,30.07,0,0,0,0.00
2013-8-7,78.0,69.6,64.0,68.0,64.1,61.0,94,83,61,30.18,30.09,0,0,0,0.25
2013-8-8,82.0,72.8,69.0,72.0,68.8,67.0,95,88,66,30.10,30.04,0,0,0,0.43
2013-8-9,86.0,75.6,71.0,73.0,71.0,69.0,96,87,59,30.05,29.83,0,0,0,0.40
2013-8-10,83.0,74.4,65.0,69.0,61.8,55.0,94,67,41,30.09,29.91,1,0,8,0.01
2013-8-11,76.0,64.6,57.0,59.0,55.5,53.0,89,74,47,30.16,30.09,0,0,0,0.00
2013-8-12,82.0,74.1,67.0,64.0,61.7,58.0,87,67,45,29.98,29.96,0,0,0,0.00
2013-8-13,79.0,70.5,66.0,69.0,63.6,-99.9,95,83,66,29.98,29.73,0,0,0,0.85
2013-8-14,74.0,62.8,56.0,64.0,53.2,48.0,93,72,50,29.85,29.81,0,0,0,0.27
2013-8-15,77.0,59.8,53.0,56.0,40.2,-99.9,91,64,37,0.00,40.00,0,0,0,0.00
2013-8-16,81.0,65.2,53.0,59.0,50.6,-99.9,95,67,34,0.00,40.00,0,0,0,0.00
2013-8-17,83.0,68.7,56.0,62.0,57.6,53.0,95,71,37,0.00,40.00,0,0,0,0.00
2013-8-18,75.0,67.0,61.0,65.0,58.8,-99.9,91,78,58,0.00,40.00,0,0,0,0.01
2013-8-19,79.0,66.2,61.0,62.0,50.4,-99.9,94,75,51,0.00,40.00,0,0,0,0.00
2013-8-20,87.0,73.7,63.0,68.0,61.8,-99.9,93,71,42,0.00,40.00,0,0,0,0.00
2013-8-21,88.0,74.5,63.0,66.0,61.8,56.0,91,69,35,0.00,40.00,0,0,0,0.00
2013-8-22,80.0,71.8,67.0,72.0,67.6,63.0,92,87,70,0.00,40.00,0,0,0,0.16
2013-8-24,81.0,66.9,55.0,57.0,53.6,50.0,92,66,36,0.00,40.00,0,0,0,0.00
2013-8-25,83.0,67.2,54.0,60.0,52.4,-99.9,95,66,31,0.00,40.00,0,0,0,0.00
2013-8-26,79.0,72.4,67.0,69.0,60.5,54.0,92,67,58,0.00,40.00,0,0,0,0.09
2013-8-27,88.0,75.3,70.0,69.0,63.9,-99.9,93,75,47,0.00,40.00,0,0,0,0.07
2013-8-28,78.0,72.9,70.0,72.0,70.0,66.0,94,90,69,0.00,40.00,0,0,0,1.42
2013-8-29,82.0,71.8,66.0,71.0,67.1,64.0,98,86,58,0.00,40.00,0,0,0,0.03
2013-8-30,85.0,74.3,68.0,69.0,65.7,64.0,89,76,51,0.00,40.00,0,0,0,0.01
2013-8-31,86.0,76.9,71.0,72.0,69.2,67.0,90,78,58,0.00,40.00,0,0,0,0.00
2013-9-1,82.0,75.2,72.0,74.0,69.1,-99.9,94,84,66,0.00,40.00,0,0,0,0.52
2013-9-2,83.0,74.3,70.0,73.0,70.1,68.0,95,87,62,0.00,40.00,0,0,0,0.02
2013-9-3,81.0,71.3,62.0,69.0,61.6,55.0,97,75,43,0.00,40.00,0,0,0,0.13
2013-9-4,82.0,69.3,59.0,60.0,56.6,53.0,94,68,37,0.00,40.00,0,0,0,0.00
2013-9-5,76.0,65.2,55.0,61.0,53.4,44.0,95,70,34,30.16,30.03,0,0,0,0.00
2013-9-6,73.0,59.5,49.0,49.0,45.4,42.0,85,62,35,30.26,30.13,0,0,0,0.00
2013-9-7,80.0,62.7,47.0,56.0,49.5,44.0,95,68,30,30.14,29.90,0,0,0,0.00
2013-9-8,80.0,68.1,58.0,62.0,52.4,-99.9,87,61,34,30.09,29.83,0,0,3,0.00
2013-9-9,73.0,61.2,47.0,57.0,49.7,45.0,93,68,45,30.25,30.09,0,0,0,0.00
2013-9-10,87.0,73.6,62.0,71.0,66.0,57.0,92,78,56,30.16,30.05,0,0,0,0.00
2013-9-11,94.0,81.2,70.0,75.0,70.5,66.0,94,72,47,30.12,29.98,0,0,0,0.00
2013-9-12,85.0,75.8,70.0,73.0,69.2,66.0,92,80,61,30.01,29.85,0,0,0,0.30
2013-9-13,76.0,67.2,57.0,59.0,53.6,47.0,73,62,50,29.87,29.67,0,0,0,0.00
2013-9-14,65.0,56.8,50.0,49.0,46.6,44.0,83,70,52,30.14,29.87,0,0,2,0.00
2013-9-15,73.0,58.8,49.0,53.0,44.8,-99.9,87,67,32,30.14,30.09,0,0,0,0.00
2013-9-16,73.0,61.4,54.0,57.0,52.5,48.0,95,75,47,30.26,30.04,0,0,0,0.02
2013-9-17,67.0,53.8,44.0,49.0,42.4,39.0,92,67,40,30.45,30.26,0,0,0,0.01
2013-9-18,51.0,44.3,42.0,47.0,43.0,41.0,98,96,92,30.37,30.20,0,0,0,0.00
2013-9-19,79.0,59.3,44.0,53.0,48.1,43.0,98,72,31,30.20,30.08,0,0,0,0.00
2013-9-20,81.0,63.3,48.0,61.0,53.6,47.0,98,75,36,30.11,30.00,0,0,0,0.00
2013-9-21,77.0,64.8,53.0,66.0,58.1,52.0,97,81,51,30.02,29.68,0,0,0,0.85
2013-9-22,67.0,59.8,53.0,65.0,49.3,-99.9,96,72,48,29.93,29.68,0,0,0,1.22
2013-9-23,66.0,55.2,46.0,45.0,42.2,40.0,81,63,44,30.06,29.93,0,0,3,0.00
2013-9-24,75.0,56.1,41.0,47.0,43.3,40.0,96,67,32,30.07,29.89,0,0,3,0.00
2013-9-25,74.0,58.1,45.0,53.0,47.4,43.0,93,71,41,29.98,29.89,0,0,0,0.00
2013-9-26,72.0,58.3,48.0,58.0,52.6,47.0,97,83,52,30.12,29.96,0,0,0,0.00
2013-9-27,68.0,57.6,48.0,54.0,51.0,47.0,98,80,58,30.28,30.12,0,0,0,0.00
2013-9-28,76.0,61.3,49.0,56.0,52.1,48.0,98,75,41,30.34,30.26,0,0,0,0.00
2013-9-29,75.0,59.9,48.0,56.0,49.9,-99.9,98,75,46,30.26,30.09,0,0,0,0.00
2013-9-30,56.0,54.2,53.0,52.0,51.6,51.0,93,91,88,30.01,30.01,0,0,0,0.00
2013-10-1,53.0,52.5,52.0,51.0,50.5,50.0,93,93,93,30.01,30.00,0,0,0,0.00
2013-10-2,84.0,74.5,62.0,62.0,59.4,56.0,89,62,39,30.03,29.93,0,0,3,0.00
2013-10-3,79.0,65.3,54.0,60.0,56.4,49.0,96,76,38,30.14,30.03,0,0,0,0.00
2013-10-4,87.0,70.2,59.0,68.0,62.1,57.0,95,79,41,30.08,29.98,0,0,0,0.01
2013-10-5,79.0,69.3,64.0,65.0,63.1,62.0,94,82,58,30.11,30.04,0,0,0,0.01
2013-10-6,66.0,65.3,65.0,66.0,64.1,62.0,99,95,88,30.11,30.04,0,0,0,0.09
2013-10-7,73.0,66.1,57.0,70.0,63.5,47.0,99,91,69,30.04,29.74,0,0,0,0.69
2013-10-8,69.0,56.0,47.0,50.0,47.2,44.0,98,75,43,30.35,29.99,0,0,0,0.01
2013-10-9,62.0,52.2,44.0,49.0,45.8,43.0,97,81,53,30.42,30.31,1,0,4,0.00
2013-10-10,61.0,54.8,49.0,53.0,49.1,45.0,94,81,73,30.31,30.13,0,0,0,0.00
2013-10-11,65.0,63.7,61.0,59.0,57.0,53.0,86,79,72,30.12,30.05,0,0,0,0.00
2013-10-12,75.0,63.6,55.0,57.0,48.8,36.0,86,61,25,30.30,30.10,0,0,0,0.00
2013-10-13,68.0,57.2,50.0,52.0,48.0,-99.9,95,74,53,30.41,30.30,0,0,0,0.00
2013-10-14,71.0,56.6,48.0,52.0,49.3,47.0,97,79,48,30.38,30.24,0,0,0,0.00
2013-10-15,75.0,58.0,47.0,56.0,50.3,46.0,99,79,45,30.27,30.13,0,0,0,0.00
2013-10-16,66.0,57.8,50.0,58.0,53.4,48.0,96,86,68,30.14,29.93,0,0,0,0.00
2013-10-17,77.0,65.6,60.0,62.0,58.9,55.0,96,81,48,29.93,29.69,0,0,0,0.01
2013-10-18,69.0,59.8,48.0,62.0,46.7,42.0,92,64,38,29.99,29.68,1,0,5,0.03
2013-10-19,65.0,52.6,42.0,52.0,44.5,40.0,97,76,44,30.00,29.76,0,0,3,0.03
2013-10-20,64.0,52.4,44.0,52.0,39.4,-99.9,94,66,35,30.07,29.76,0,0,5,0.03
2013-10-21,69.0,51.1,38.0,45.0,39.7,35.0,99,71,30,30.15,29.98,0,0,0,0.00
2013-10-22,64.0,51.2,41.0,51.0,44.1,40.0,99,79,52,29.99,29.75,0,0,0,0.00
2013-10-23,57.0,44.8,37.0,41.0,37.2,35.0,94,76,49,29.83,29.63,0,0,0,0.00
2013-10-24,54.0,44.4,38.0,37.0,32.3,28.0,87,64,40,30.01,29.76,1,0,6,0.00
2013-10-25,55.0,45.6,36.0,35.0,32.0,29.0,89,61,39,30.22,30.00,0,0,0,0.00
2013-10-26,56.0,43.0,29.0,36.0,31.6,29.0,100,68,37,30.22,29.89,0,0,4,0.00
2013-10-27,59.0,48.7,39.0,35.0,31.4,-99.9,80,53,37,30.13,29.85,0,0,4,0.00
2013-10-28,66.0,45.9,33.0,37.0,32.7,-99.9,96,67,31,30.33,30.13,0,0,0,0.00
2013-10-29,57.0,45.2,38.0,37.0,33.7,31.0,87,66,42,30.42,30.32,0,0,0,0.00
2013-10-30,57.0,46.1,37.0,49.0,40.5,32.0,97,82,61,30.35,30.18,0,0,0,0.00
2013-10-31,61.0,51.3,42.0,59.0,50.3,41.0,99,96,87,30.24,29.81,0,0,0,0.04
2013-11-1,70.0,62.5,50.0,63.0,55.0,48.0,95,79,48,29.80,29.55,3,0,15,0.21
2013-11-2,69.0,53.8,44.0,51.0,44.8,39.0,97,75,40,29.80,29.63,0,0,0,0.02
2013-11-3,51.0,44.4,38.0,45.0,33.9,-99.9,91,70,44,30.32,29.80,0,0,3,0.01
2013-11-4,50.0,40.2,33.0,26.0,22.1,19.0,74,50,31,30.65,30.58,0,0,2,0.00
2013-11-5,58.0,42.3,30.0,41.0,34.6,25.0,90,75,51,30.66,30.48,0,0,0,0.00
2013-11-6,59.0,49.9,40.0,50.0,43.8,38.0,97,81,57,30.50,30.07,0,0,0,0.00
2013-11-7,61.0,54.7,38.0,56.0,50.6,34.0,94,86,76,30.07,29.76,0,0,2,0.07
2013-11-8,48.0,41.3,33.0,34.0,29.1,25.0,83,63,44,30.21,29.93,0,0,0,0.01
2013-11-9,53.0,40.1,29.0,32.0,27.3,-99.9,94,65,40,30.28,29.99,0,0,0,0.01
2013-11-10,59.0,45.9,34.0,39.0,33.5,30.0,93,64,39,30.04,29.82,7,0,19,0.00
2013-11-11,54.0,46.4,38.0,34.0,30.1,26.0,65,53,42,30.20,29.95,0,0,0,0.00
2013-11-12,50.0,36.4,29.0,35.0,25.9,19.0,92,66,51,30.29,29.93,1,0,6,0.03
2013-11-13,39.0,30.5,25.0,22.0,17.8,14.0,83,60,38,30.37,30.26,1,0,6,0.01
2013-11-14,53.0,40.1,28.0,23.0,20.6,18.0,78,48,26,30.26,30.15,0,0,0,0.00
2013-11-15,60.0,38.4,27.0,31.0,25.6,20.0,87,64,23,30.24,30.15,0,0,0,0.00
2013-11-16,64.0,51.0,34.0,45.0,37.9,-99.9,95,68,43,30.30,30.22,0,0,0,0.01
2013-11-17,58.0,50.8,44.0,57.0,49.9,42.0,100,98,93,30.28,29.80,0,0,0,0.05
2013-11-18,65.0,58.0,48.0,60.0,41.5,29.0,97,58,31,29.80,29.59,1,0,6,0.31
2013-11-19,48.0,41.4,34.0,31.0,26.5,23.0,64,55,47,30.34,29.79,1,0,9,0.01
2013-11-20,46.0,34.3,27.0,23.0,19.7,15.0,74,57,30,30.60,30.34,0,0,0,0.00
2013-11-21,51.0,37.4,23.0,40.0,29.4,19.0,88,74,50,30.61,30.38,0,0,0,0.00
2013-11-22,59.0,49.9,44.0,49.0,45.0,40.0,98,84,65,30.38,29.91,1,0,7,0.02
2013-11-23,53.0,39.4,28.0,47.0,24.9,-99.9,95,59,38,30.05,29.90,1,0,13,0.01
2013-11-24,28.0,23.7,20.0,11.0,8.6,6.0,61,52,38,30.37,30.02,6,0,21,0.00
2013-11-25,38.0,27.3,19.0,18.0,13.8,10.0,70,57,43,30.45,30.30,0,0,0,0.00
2013-11-26,39.0,33.7,31.0,38.0,25.1,16.0,100,72,53,30.32,29.80,0,0,0,0.64
2013-11-27,52.0,41.4,32.0,52.0,38.9,20.0,100,91,64,29.80,29.38,6,0,21,2.80
2013-11-28,35.0,29.4,25.0,20.0,16.4,13.0,73,59,41,30.45,29.73,3,0,14,0.01
2013-11-29,38.0,30.1,25.0,23.0,20.4,16.0,84,67,53,30.73,30.45,0,0,0,0.00
2013-11-30,35.0,27.0,18.0,25.0,17.4,-99.9,90,70,53,30.75,30.39,0,0,0,0.00
2013-12-1,51.0,37.5,27.0,34.0,30.3,25.0,96,76,51,30.37,30.01,0,0,0,0.00
2013-12-2,50.0,38.7,32.0,37.0,32.7,29.0,91,79,59,30.01,29.88,0,0,0,0.00
2013-12-3,53.0,38.8,32.0,36.0,33.0,30.0,96,81,51,30.03,29.20,0,0,0,0.00
2013-12-4,51.0,40.9,30.0,40.0,35.6,29.0,99,83,62,30.15,30.03,0,0,0,0.03
2013-12-5,51.0,48.0,44.0,51.0,47.2,39.0,100,97,82,30.14,29.95,0,0,0,0.08
2013-12-6,53.0,44.6,37.0,53.0,43.2,37.0,100,95,88,30.17,29.90,0,0,0,0.86
2013-12-7,39.0,34.3,29.0,37.0,26.4,-99.9,100,76,55,30.53,30.12,0,0,2,0.08
2013-12-8,32.0,28.0,25.0,29.0,20.5,16.0,98,74,62,30.60,30.41,0,0,0,0.00
2013-12-9,36.0,32.5,29.0,36.0,32.5,29.0,100,100,98,30.40,29.99,0,0,0,0.30
2013-12-10,33.0,30.3,25.0,33.0,28.5,17.0,100,93,71,30.12,29.89,0,0,3,0.07
2013-12-11,34.0,25.6,17.0,20.0,17.9,16.0,97,73,54,30.32,30.12,1,0,4,0.01
2013-12-12,28.0,22.3,18.0,19.0,11.4,8.0,80,63,48,30.36,30.16,0,0,0,0.08
2013-12-13,35.0,24.8,13.0,21.0,14.7,8.0,86,66,51,30.34,30.13,0,0,3,0.08
2013-12-14,26.0,21.6,17.0,23.0,18.5,-99.9,99,91,78,30.50,29.85,0,0,0,0.00
2013-12-15,39.0,31.6,25.0,33.0,28.1,22.0,100,87,69,29.85,29.57,0,0,0,0.56
2013-12-16,30.0,24.3,14.0,23.0,13.9,11.0,87,65,48,30.24,29.83,1,0,8,0.02
2013-12-17,27.0,19.2,12.0,27.0,17.7,10.0,98,93,86,30.24,29.97,0,0,0,0.00
2013-12-18,37.0,26.3,16.0,25.0,20.5,15.0,98,80,54,30.17,29.95,0,0,0,0.31
2013-12-19,48.0,30.2,16.0,31.0,23.8,15.0,99,80,45,30.19,30.03,0,0,0,0.07
2013-12-20,52.0,38.0,30.0,35.0,32.2,29.0,97,81,51,30.12,29.98,0,0,0,0.00
2013-12-21,58.0,42.2,33.0,47.0,37.1,-99.9,99,86,60,30.01,29.92,0,0,0,0.00
2013-12-22,67.0,59.5,44.0,62.0,54.6,43.0,100,85,72,29.99,29.83,0,0,1,0.04
2013-12-23,57.0,49.6,39.0,57.0,47.5,30.0,100,93,70,30.17,29.95,0,0,2,0.71
2013-12-24,39.0,32.6,23.0,30.0,22.6,12.0,97,67,51,30.36,30.11,3,0,16,0.01
2013-12-25,30.0,22.0,15.0,16.0,11.4,7.0,73,63,50,30.54,30.36,1,0,8,0.02
2013-12-26,35.0,27.8,21.0,28.0,22.8,15.0,90,81,69,30.44,30.17,0,0,2,0.01
2013-12-27,39.0,30.4,22.0,26.0,23.3,21.0,97,77,53,30.36,30.27,1,0,5,0.00
2013-12-28,54.0,34.4,22.0,30.0,24.9,-99.9,99,75,37,30.30,30.09,0,0,3,0.00
2013-12-29,41.0,36.1,30.0,41.0,34.4,28.0,100,94,80,30.09,29.50,0,0,0,1.24
2013-12-30,41.0,32.1,20.0,38.0,25.7,11.0,100,78,59,30.21,29.70,4,0,14,0.02
2013-12-31,30.0,23.5,18.0,26.0,14.3,10.0,89,68,56,30.29,30.07,1,0,7,0.00
2014-1-1,31.0,24.9,15.0,22.0,16.8,10.0,92,72,58,30.41,30.28,0,0,0,0.00
2014-1-2,28.0,21.2,12.0,23.0,18.3,11.0,97,89,76,30.27,29.74,0,0,0,0.00